sensor_id;sensor_type;location;lat;lon;timestamp;temperature;humidity
16032;DHT22;8120;48.308;8.914;2023-07-20T00:00:25;17.90;59.00
16032;DHT22;8120;48.308;8.914;2023-07-20T00:03:10;17.80;59.10
16032;DHT22;8120;48.308;8.914;2023-07-20T00:05:39;17.80;58.90
16032;DHT22;8120;48.308;8.914;2023-07-20T00:08:07;17.80;59.20
16032;DHT22;8120;48.308;8.914;2023-07-20T00:10:35;17.80;59.40
16032;DHT22;8120;48.308;8.914;2023-07-20T00:13:03;17.70;59.40
16032;DHT22;8120;48.308;8.914;2023-07-20T00:15:30;17.70;59.90
16032;DHT22;8120;48.308;8.914;2023-07-20T00:18:00;17.70;59.80
16032;DHT22;8120;48.308;8.914;2023-07-20T00:20:28;17.70;60.20
16032;DHT22;8120;48.308;8.914;2023-07-20T00:22:56;17.70;60.10
16032;DHT22;8120;48.308;8.914;2023-07-20T00:25:24;17.60;60.40
16032;DHT22;8120;48.308;8.914;2023-07-20T00:27:52;17.50;60.80
16032;DHT22;8120;48.308;8.914;2023-07-20T00:30:20;17.50;60.70
16032;DHT22;8120;48.308;8.914;2023-07-20T00:32:48;17.50;60.60
16032;DHT22;8120;48.308;8.914;2023-07-20T00:35:18;17.40;60.60
16032;DHT22;8120;48.308;8.914;2023-07-20T00:37:45;17.30;61.00
16032;DHT22;8120;48.308;8.914;2023-07-20T00:40:13;17.30;61.20
16032;DHT22;8120;48.308;8.914;2023-07-20T00:42:41;17.30;61.30
16032;DHT22;8120;48.308;8.914;2023-07-20T00:45:09;17.20;61.00
16032;DHT22;8120;48.308;8.914;2023-07-20T00:47:37;17.20;60.70
16032;DHT22;8120;48.308;8.914;2023-07-20T00:50:06;17.10;60.70
16032;DHT22;8120;48.308;8.914;2023-07-20T00:52:37;17.10;60.90
16032;DHT22;8120;48.308;8.914;2023-07-20T00:55:07;17.00;60.20
16032;DHT22;8120;48.308;8.914;2023-07-20T00:57:36;17.00;59.70
16032;DHT22;8120;48.308;8.914;2023-07-20T01:00:06;17.00;59.10
16032;DHT22;8120;48.308;8.914;2023-07-20T01:02:35;17.00;59.30
16032;DHT22;8120;48.308;8.914;2023-07-20T01:05:04;16.90;59.30
16032;DHT22;8120;48.308;8.914;2023-07-20T01:07:37;16.90;59.40
16032;DHT22;8120;48.308;8.914;2023-07-20T01:10:12;16.90;59.10
16032;DHT22;8120;48.308;8.914;2023-07-20T01:12:43;16.90;59.70
16032;DHT22;8120;48.308;8.914;2023-07-20T01:15:10;16.80;59.20
16032;DHT22;8120;48.308;8.914;2023-07-20T01:17:39;16.80;59.30
16032;DHT22;8120;48.308;8.914;2023-07-20T01:20:10;16.70;59.60
16032;DHT22;8120;48.308;8.914;2023-07-20T01:22:52;16.60;59.50
16032;DHT22;8120;48.308;8.914;2023-07-20T01:25:54;16.50;60.00
16032;DHT22;8120;48.308;8.914;2023-07-20T01:28:37;16.40;60.40
16032;DHT22;8120;48.308;8.914;2023-07-20T01:31:18;16.30;61.30
16032;DHT22;8120;48.308;8.914;2023-07-20T01:33:48;16.20;61.50
16032;DHT22;8120;48.308;8.914;2023-07-20T01:36:18;16.10;61.40
16032;DHT22;8120;48.308;8.914;2023-07-20T01:38:47;16.10;61.50
16032;DHT22;8120;48.308;8.914;2023-07-20T01:41:15;16.00;62.20
16032;DHT22;8120;48.308;8.914;2023-07-20T01:43:43;15.90;62.70
16032;DHT22;8120;48.308;8.914;2023-07-20T01:46:11;15.80;62.90
16032;DHT22;8120;48.308;8.914;2023-07-20T01:48:40;15.80;62.20
16032;DHT22;8120;48.308;8.914;2023-07-20T01:51:08;15.70;62.80
16032;DHT22;8120;48.308;8.914;2023-07-20T01:53:36;15.60;63.00
16032;DHT22;8120;48.308;8.914;2023-07-20T01:56:04;15.60;63.30
16032;DHT22;8120;48.308;8.914;2023-07-20T01:58:32;15.60;63.20
16032;DHT22;8120;48.308;8.914;2023-07-20T02:01:01;15.50;63.50
16032;DHT22;8120;48.308;8.914;2023-07-20T02:03:29;15.60;63.40
16032;DHT22;8120;48.308;8.914;2023-07-20T02:05:59;15.60;64.00
16032;DHT22;8120;48.308;8.914;2023-07-20T02:08:27;15.50;65.10
16032;DHT22;8120;48.308;8.914;2023-07-20T02:10:55;15.30;66.00
16032;DHT22;8120;48.308;8.914;2023-07-20T02:13:22;15.10;66.50
16032;DHT22;8120;48.308;8.914;2023-07-20T02:15:50;15.00;66.90
16032;DHT22;8120;48.308;8.914;2023-07-20T02:18:18;14.90;67.30
16032;DHT22;8120;48.308;8.914;2023-07-20T02:20:46;14.80;67.30
16032;DHT22;8120;48.308;8.914;2023-07-20T02:23:15;14.80;67.20
16032;DHT22;8120;48.308;8.914;2023-07-20T02:25:44;14.80;67.10
16032;DHT22;8120;48.308;8.914;2023-07-20T02:28:13;14.70;67.40
16032;DHT22;8120;48.308;8.914;2023-07-20T02:30:41;14.70;67.50
16032;DHT22;8120;48.308;8.914;2023-07-20T02:33:09;14.70;67.40
16032;DHT22;8120;48.308;8.914;2023-07-20T02:35:37;14.60;67.70
16032;DHT22;8120;48.308;8.914;2023-07-20T02:38:05;14.60;67.70
16032;DHT22;8120;48.308;8.914;2023-07-20T02:40:35;14.60;68.10
16032;DHT22;8120;48.308;8.914;2023-07-20T02:43:03;14.50;68.40
16032;DHT22;8120;48.308;8.914;2023-07-20T02:45:30;14.50;68.60
16032;DHT22;8120;48.308;8.914;2023-07-20T02:47:58;14.50;68.70
16032;DHT22;8120;48.308;8.914;2023-07-20T02:50:27;14.50;68.30
16032;DHT22;8120;48.308;8.914;2023-07-20T02:52:55;14.40;68.60
16032;DHT22;8120;48.308;8.914;2023-07-20T02:55:23;14.30;69.20
16032;DHT22;8120;48.308;8.914;2023-07-20T02:57:52;14.30;69.50
16032;DHT22;8120;48.308;8.914;2023-07-20T03:00:20;14.30;69.70
16032;DHT22;8120;48.308;8.914;2023-07-20T03:02:50;14.20;69.70
16032;DHT22;8120;48.308;8.914;2023-07-20T03:05:22;14.20;69.60
16032;DHT22;8120;48.308;8.914;2023-07-20T03:07:52;14.20;69.90
16032;DHT22;8120;48.308;8.914;2023-07-20T03:10:19;14.20;69.70
16032;DHT22;8120;48.308;8.914;2023-07-20T03:12:47;14.20;69.80
16032;DHT22;8120;48.308;8.914;2023-07-20T03:15:17;14.20;69.80
16032;DHT22;8120;48.308;8.914;2023-07-20T03:17:45;14.10;69.50
16032;DHT22;8120;48.308;8.914;2023-07-20T03:20:13;14.10;69.80
16032;DHT22;8120;48.308;8.914;2023-07-20T03:22:41;14.10;70.10
16032;DHT22;8120;48.308;8.914;2023-07-20T03:25:09;14.00;69.80
16032;DHT22;8120;48.308;8.914;2023-07-20T03:27:37;14.00;69.10
16032;DHT22;8120;48.308;8.914;2023-07-20T03:30:06;14.10;68.80
16032;DHT22;8120;48.308;8.914;2023-07-20T03:32:37;14.20;68.40
16032;DHT22;8120;48.308;8.914;2023-07-20T03:35:06;14.20;68.60
16032;DHT22;8120;48.308;8.914;2023-07-20T03:37:34;14.10;67.80
16032;DHT22;8120;48.308;8.914;2023-07-20T03:40:03;14.10;68.60
16032;DHT22;8120;48.308;8.914;2023-07-20T03:42:31;14.10;69.30
16032;DHT22;8120;48.308;8.914;2023-07-20T03:44:59;14.10;69.60
16032;DHT22;8120;48.308;8.914;2023-07-20T03:47:27;14.00;69.30
16032;DHT22;8120;48.308;8.914;2023-07-20T03:49:56;14.00;70.50
16032;DHT22;8120;48.308;8.914;2023-07-20T03:52:24;14.00;71.20
16032;DHT22;8120;48.308;8.914;2023-07-20T03:54:52;13.90;71.30
16032;DHT22;8120;48.308;8.914;2023-07-20T03:57:20;14.00;71.00
16032;DHT22;8120;48.308;8.914;2023-07-20T03:59:48;14.00;71.00
16032;DHT22;8120;48.308;8.914;2023-07-20T04:02:16;14.00;70.60
16032;DHT22;8120;48.308;8.914;2023-07-20T04:04:44;14.10;70.40
16032;DHT22;8120;48.308;8.914;2023-07-20T04:07:13;14.10;70.50
16032;DHT22;8120;48.308;8.914;2023-07-20T04:09:41;14.20;70.10
16032;DHT22;8120;48.308;8.914;2023-07-20T04:12:09;14.30;69.90
16032;DHT22;8120;48.308;8.914;2023-07-20T04:14:36;14.30;70.10
16032;DHT22;8120;48.308;8.914;2023-07-20T04:17:04;14.30;70.30
16032;DHT22;8120;48.308;8.914;2023-07-20T04:19:32;14.40;69.90
16032;DHT22;8120;48.308;8.914;2023-07-20T04:22:00;14.50;70.00
16032;DHT22;8120;48.308;8.914;2023-07-20T04:24:31;14.50;69.80
16032;DHT22;8120;48.308;8.914;2023-07-20T04:26:58;14.60;69.70
16032;DHT22;8120;48.308;8.914;2023-07-20T04:29:26;14.70;69.20
16032;DHT22;8120;48.308;8.914;2023-07-20T04:31:54;14.70;69.20
16032;DHT22;8120;48.308;8.914;2023-07-20T04:34:22;14.80;68.80
16032;DHT22;8120;48.308;8.914;2023-07-20T04:36:50;15.00;68.70
16032;DHT22;8120;48.308;8.914;2023-07-20T04:39:18;15.40;66.90
16032;DHT22;8120;48.308;8.914;2023-07-20T04:41:58;15.60;66.20
16032;DHT22;8120;48.308;8.914;2023-07-20T04:44:26;15.60;66.10
16032;DHT22;8120;48.308;8.914;2023-07-20T04:46:54;15.90;65.40
16032;DHT22;8120;48.308;8.914;2023-07-20T04:49:22;16.10;64.50
16032;DHT22;8120;48.308;8.914;2023-07-20T04:51:51;16.10;63.90
16032;DHT22;8120;48.308;8.914;2023-07-20T04:54:19;16.30;64.30
16032;DHT22;8120;48.308;8.914;2023-07-20T04:56:46;16.70;62.40
16032;DHT22;8120;48.308;8.914;2023-07-20T04:59:18;16.90;61.90
16032;DHT22;8120;48.308;8.914;2023-07-20T05:01:46;17.20;61.60
16032;DHT22;8120;48.308;8.914;2023-07-20T05:04:14;17.40;61.00
16032;DHT22;8120;48.308;8.914;2023-07-20T05:06:44;17.30;60.90
16032;DHT22;8120;48.308;8.914;2023-07-20T05:09:12;17.20;61.90
16032;DHT22;8120;48.308;8.914;2023-07-20T05:11:40;17.20;61.80
16032;DHT22;8120;48.308;8.914;2023-07-20T05:14:08;17.20;61.50
16032;DHT22;8120;48.308;8.914;2023-07-20T05:16:38;17.20;61.30
16032;DHT22;8120;48.308;8.914;2023-07-20T05:19:05;17.00;61.50
16032;DHT22;8120;48.308;8.914;2023-07-20T05:21:33;17.10;61.60
16032;DHT22;8120;48.308;8.914;2023-07-20T05:24:01;17.20;61.10
16032;DHT22;8120;48.308;8.914;2023-07-20T05:26:29;17.20;61.70
16032;DHT22;8120;48.308;8.914;2023-07-20T05:28:57;17.00;61.50
16032;DHT22;8120;48.308;8.914;2023-07-20T05:31:25;17.00;61.60
16032;DHT22;8120;48.308;8.914;2023-07-20T05:33:54;17.00;61.00
16032;DHT22;8120;48.308;8.914;2023-07-20T05:36:22;16.90;60.90
16032;DHT22;8120;48.308;8.914;2023-07-20T05:38:50;17.00;61.10
16032;DHT22;8120;48.308;8.914;2023-07-20T05:41:18;17.00;62.10
16032;DHT22;8120;48.308;8.914;2023-07-20T05:43:46;17.10;61.20
16032;DHT22;8120;48.308;8.914;2023-07-20T05:46:14;17.20;61.30
16032;DHT22;8120;48.308;8.914;2023-07-20T05:48:42;17.50;60.20
16032;DHT22;8120;48.308;8.914;2023-07-20T05:51:11;17.60;59.60
16032;DHT22;8120;48.308;8.914;2023-07-20T05:53:39;17.60;59.60
16032;DHT22;8120;48.308;8.914;2023-07-20T05:56:07;17.70;58.90
16032;DHT22;8120;48.308;8.914;2023-07-20T05:58:36;18.10;57.10
16032;DHT22;8120;48.308;8.914;2023-07-20T06:01:04;18.10;57.00
16032;DHT22;8120;48.308;8.914;2023-07-20T06:03:33;18.00;58.00
16032;DHT22;8120;48.308;8.914;2023-07-20T06:06:02;18.00;58.90
16032;DHT22;8120;48.308;8.914;2023-07-20T06:08:32;18.10;58.80
16032;DHT22;8120;48.308;8.914;2023-07-20T06:11:00;18.20;58.80
16032;DHT22;8120;48.308;8.914;2023-07-20T06:13:28;18.40;58.10
16032;DHT22;8120;48.308;8.914;2023-07-20T06:15:55;18.40;57.70
16032;DHT22;8120;48.308;8.914;2023-07-20T06:18:23;18.70;57.30
16032;DHT22;8120;48.308;8.914;2023-07-20T06:20:51;18.60;56.30
16032;DHT22;8120;48.308;8.914;2023-07-20T06:23:19;18.30;57.00
16032;DHT22;8120;48.308;8.914;2023-07-20T06:25:49;18.00;57.70
16032;DHT22;8120;48.308;8.914;2023-07-20T06:28:17;18.00;57.60
16032;DHT22;8120;48.308;8.914;2023-07-20T06:30:45;17.90;58.20
16032;DHT22;8120;48.308;8.914;2023-07-20T06:33:13;18.20;57.90
16032;DHT22;8120;48.308;8.914;2023-07-20T06:35:41;18.30;57.20
16032;DHT22;8120;48.308;8.914;2023-07-20T06:38:10;18.10;57.90
16032;DHT22;8120;48.308;8.914;2023-07-20T06:40:41;18.30;57.90
16032;DHT22;8120;48.308;8.914;2023-07-20T06:43:10;18.80;57.10
16032;DHT22;8120;48.308;8.914;2023-07-20T06:45:41;19.10;55.90
16032;DHT22;8120;48.308;8.914;2023-07-20T06:48:09;19.00;56.50
16032;DHT22;8120;48.308;8.914;2023-07-20T06:50:37;19.10;55.30
16032;DHT22;8120;48.308;8.914;2023-07-20T06:53:05;18.90;56.30
16032;DHT22;8120;48.308;8.914;2023-07-20T06:55:32;19.20;55.20
16032;DHT22;8120;48.308;8.914;2023-07-20T06:58:08;18.50;56.00
16032;DHT22;8120;48.308;8.914;2023-07-20T07:00:37;19.00;55.90
16032;DHT22;8120;48.308;8.914;2023-07-20T07:03:05;19.30;54.50
16032;DHT22;8120;48.308;8.914;2023-07-20T07:05:36;19.30;55.30
16032;DHT22;8120;48.308;8.914;2023-07-20T07:08:04;19.80;54.20
16032;DHT22;8120;48.308;8.914;2023-07-20T07:10:34;20.10;52.20
16032;DHT22;8120;48.308;8.914;2023-07-20T07:13:02;19.90;53.50
16032;DHT22;8120;48.308;8.914;2023-07-20T07:15:31;19.50;54.20
16032;DHT22;8120;48.308;8.914;2023-07-20T07:18:01;19.30;55.20
16032;DHT22;8120;48.308;8.914;2023-07-20T07:20:30;19.50;53.50
16032;DHT22;8120;48.308;8.914;2023-07-20T07:22:57;19.20;54.00
16032;DHT22;8120;48.308;8.914;2023-07-20T07:25:26;19.40;54.10
16032;DHT22;8120;48.308;8.914;2023-07-20T07:27:55;19.50;53.30
16032;DHT22;8120;48.308;8.914;2023-07-20T07:30:23;19.60;53.20
16032;DHT22;8120;48.308;8.914;2023-07-20T07:32:51;19.50;53.60
16032;DHT22;8120;48.308;8.914;2023-07-20T07:35:20;19.80;54.20
16032;DHT22;8120;48.308;8.914;2023-07-20T07:37:49;20.10;52.60
16032;DHT22;8120;48.308;8.914;2023-07-20T07:40:35;20.70;51.20
16032;DHT22;8120;48.308;8.914;2023-07-20T07:43:03;21.50;49.20
16032;DHT22;8120;48.308;8.914;2023-07-20T07:45:31;21.10;49.70
16032;DHT22;8120;48.308;8.914;2023-07-20T07:47:59;21.50;50.20
16032;DHT22;8120;48.308;8.914;2023-07-20T07:50:28;22.00;46.90
16032;DHT22;8120;48.308;8.914;2023-07-20T07:52:56;21.20;48.90
16032;DHT22;8120;48.308;8.914;2023-07-20T07:55:24;21.40;48.20
16032;DHT22;8120;48.308;8.914;2023-07-20T07:57:53;21.90;47.40
16032;DHT22;8120;48.308;8.914;2023-07-20T08:00:21;21.70;48.50
16032;DHT22;8120;48.308;8.914;2023-07-20T08:02:50;22.30;46.60
16032;DHT22;8120;48.308;8.914;2023-07-20T08:05:19;22.00;47.30
16032;DHT22;8120;48.308;8.914;2023-07-20T08:07:48;22.70;46.50
16032;DHT22;8120;48.308;8.914;2023-07-20T08:10:16;22.90;45.50
16032;DHT22;8120;48.308;8.914;2023-07-20T08:12:44;22.10;46.90
16032;DHT22;8120;48.308;8.914;2023-07-20T08:15:12;21.70;47.80
16032;DHT22;8120;48.308;8.914;2023-07-20T08:17:41;22.00;47.50
16032;DHT22;8120;48.308;8.914;2023-07-20T08:20:13;22.40;47.20
16032;DHT22;8120;48.308;8.914;2023-07-20T08:22:42;21.40;48.80
16032;DHT22;8120;48.308;8.914;2023-07-20T08:25:15;21.00;49.90
16032;DHT22;8120;48.308;8.914;2023-07-20T08:27:43;21.00;50.20
16032;DHT22;8120;48.308;8.914;2023-07-20T08:30:13;21.00;48.90
16032;DHT22;8120;48.308;8.914;2023-07-20T08:32:41;21.70;47.80
16032;DHT22;8120;48.308;8.914;2023-07-20T08:35:09;22.00;46.90
16032;DHT22;8120;48.308;8.914;2023-07-20T08:37:37;22.50;45.00
16032;DHT22;8120;48.308;8.914;2023-07-20T08:40:05;21.40;47.60
16032;DHT22;8120;48.308;8.914;2023-07-20T08:42:37;22.10;47.20
16032;DHT22;8120;48.308;8.914;2023-07-20T08:45:08;21.50;47.40
16032;DHT22;8120;48.308;8.914;2023-07-20T08:47:37;20.50;48.70
16032;DHT22;8120;48.308;8.914;2023-07-20T08:50:08;20.70;48.30
16032;DHT22;8120;48.308;8.914;2023-07-20T08:52:37;20.60;47.80
16032;DHT22;8120;48.308;8.914;2023-07-20T08:55:05;20.70;47.80
16032;DHT22;8120;48.308;8.914;2023-07-20T08:57:33;21.20;48.00
16032;DHT22;8120;48.308;8.914;2023-07-20T09:00:04;21.10;47.50
16032;DHT22;8120;48.308;8.914;2023-07-20T09:02:35;21.00;47.20
16032;DHT22;8120;48.308;8.914;2023-07-20T09:05:08;21.70;46.90
16032;DHT22;8120;48.308;8.914;2023-07-20T09:07:38;22.00;45.60
16032;DHT22;8120;48.308;8.914;2023-07-20T09:10:07;22.00;45.40
16032;DHT22;8120;48.308;8.914;2023-07-20T09:12:38;21.80;46.00
16032;DHT22;8120;48.308;8.914;2023-07-20T09:15:11;21.60;45.10
16032;DHT22;8120;48.308;8.914;2023-07-20T09:17:39;21.30;46.30
16032;DHT22;8120;48.308;8.914;2023-07-20T09:20:08;21.50;46.50
16032;DHT22;8120;48.308;8.914;2023-07-20T09:22:38;21.90;45.90
16032;DHT22;8120;48.308;8.914;2023-07-20T09:25:09;21.50;45.00
16032;DHT22;8120;48.308;8.914;2023-07-20T09:27:39;21.50;46.10
16032;DHT22;8120;48.308;8.914;2023-07-20T09:30:11;21.70;46.10
16032;DHT22;8120;48.308;8.914;2023-07-20T09:32:46;21.70;45.30
16032;DHT22;8120;48.308;8.914;2023-07-20T09:35:19;21.20;46.20
16032;DHT22;8120;48.308;8.914;2023-07-20T09:37:52;21.60;46.20
16032;DHT22;8120;48.308;8.914;2023-07-20T09:40:40;21.30;45.60
16032;DHT22;8120;48.308;8.914;2023-07-20T09:43:12;21.70;46.10
16032;DHT22;8120;48.308;8.914;2023-07-20T09:45:44;22.40;43.70
16032;DHT22;8120;48.308;8.914;2023-07-20T09:48:15;22.80;43.20
16032;DHT22;8120;48.308;8.914;2023-07-20T09:50:49;23.20;42.40
16032;DHT22;8120;48.308;8.914;2023-07-20T09:53:18;23.00;42.80
16032;DHT22;8120;48.308;8.914;2023-07-20T09:55:47;23.50;42.60
16032;DHT22;8120;48.308;8.914;2023-07-20T09:58:15;23.70;42.10
16032;DHT22;8120;48.308;8.914;2023-07-20T10:00:46;23.50;41.60
16032;DHT22;8120;48.308;8.914;2023-07-20T10:03:20;23.80;41.10
16032;DHT22;8120;48.308;8.914;2023-07-20T10:05:52;23.90;41.20
16032;DHT22;8120;48.308;8.914;2023-07-20T10:08:24;23.40;42.20
16032;DHT22;8120;48.308;8.914;2023-07-20T10:10:57;22.90;44.30
16032;DHT22;8120;48.308;8.914;2023-07-20T10:13:28;23.20;43.20
16032;DHT22;8120;48.308;8.914;2023-07-20T10:16:02;22.30;44.30
16032;DHT22;8120;48.308;8.914;2023-07-20T10:18:34;22.40;43.00
16032;DHT22;8120;48.308;8.914;2023-07-20T10:21:03;22.20;44.00
16032;DHT22;8120;48.308;8.914;2023-07-20T10:23:37;22.20;44.70
16032;DHT22;8120;48.308;8.914;2023-07-20T10:26:06;22.90;43.30
16032;DHT22;8120;48.308;8.914;2023-07-20T10:28:35;23.80;42.40
16032;DHT22;8120;48.308;8.914;2023-07-20T10:31:06;22.90;43.10
16032;DHT22;8120;48.308;8.914;2023-07-20T10:33:35;22.70;44.00
16032;DHT22;8120;48.308;8.914;2023-07-20T10:36:06;22.70;43.20
16032;DHT22;8120;48.308;8.914;2023-07-20T10:38:41;22.50;43.50
16032;DHT22;8120;48.308;8.914;2023-07-20T10:41:18;22.60;43.70
16032;DHT22;8120;48.308;8.914;2023-07-20T10:43:47;22.80;43.00
16032;DHT22;8120;48.308;8.914;2023-07-20T10:46:33;23.00;43.50
16032;DHT22;8120;48.308;8.914;2023-07-20T10:49:03;23.80;41.60
16032;DHT22;8120;48.308;8.914;2023-07-20T10:51:39;23.30;41.90
16032;DHT22;8120;48.308;8.914;2023-07-20T10:54:08;23.00;42.00
16032;DHT22;8120;48.308;8.914;2023-07-20T10:56:37;23.20;43.30
16032;DHT22;8120;48.308;8.914;2023-07-20T10:59:18;24.20;41.00
16032;DHT22;8120;48.308;8.914;2023-07-20T11:01:48;25.50;39.50
16032;DHT22;8120;48.308;8.914;2023-07-20T11:04:17;25.10;39.40
16032;DHT22;8120;48.308;8.914;2023-07-20T11:06:45;24.20;41.00
16032;DHT22;8120;48.308;8.914;2023-07-20T11:09:14;23.90;41.00
16032;DHT22;8120;48.308;8.914;2023-07-20T11:11:43;23.60;41.80
16032;DHT22;8120;48.308;8.914;2023-07-20T11:14:20;23.60;41.00
16032;DHT22;8120;48.308;8.914;2023-07-20T11:16:51;23.30;41.90
16032;DHT22;8120;48.308;8.914;2023-07-20T11:19:21;23.60;40.90
16032;DHT22;8120;48.308;8.914;2023-07-20T11:21:54;23.60;42.10
16032;DHT22;8120;48.308;8.914;2023-07-20T11:24:30;23.20;42.20
16032;DHT22;8120;48.308;8.914;2023-07-20T11:26:58;23.60;41.80
16032;DHT22;8120;48.308;8.914;2023-07-20T11:29:27;24.00;40.20
16032;DHT22;8120;48.308;8.914;2023-07-20T11:32:02;24.60;39.70
16032;DHT22;8120;48.308;8.914;2023-07-20T11:34:32;25.30;38.40
16032;DHT22;8120;48.308;8.914;2023-07-20T11:37:00;25.20;38.60
16032;DHT22;8120;48.308;8.914;2023-07-20T11:39:32;23.20;41.20
16032;DHT22;8120;48.308;8.914;2023-07-20T11:42:00;23.30;41.30
16032;DHT22;8120;48.308;8.914;2023-07-20T11:44:29;23.00;40.90
16032;DHT22;8120;48.308;8.914;2023-07-20T11:47:03;23.20;41.70
16032;DHT22;8120;48.308;8.914;2023-07-20T11:49:34;23.50;41.90
16032;DHT22;8120;48.308;8.914;2023-07-20T11:52:03;24.60;39.30
16032;DHT22;8120;48.308;8.914;2023-07-20T11:54:32;23.90;40.50
16032;DHT22;8120;48.308;8.914;2023-07-20T11:57:00;23.60;40.80
16032;DHT22;8120;48.308;8.914;2023-07-20T11:59:28;23.90;40.60
16032;DHT22;8120;48.308;8.914;2023-07-20T12:01:58;24.20;40.10
16032;DHT22;8120;48.308;8.914;2023-07-20T12:04:31;24.60;39.90
16032;DHT22;8120;48.308;8.914;2023-07-20T12:06:59;24.90;38.70
16032;DHT22;8120;48.308;8.914;2023-07-20T12:09:27;23.90;39.40
16032;DHT22;8120;48.308;8.914;2023-07-20T12:12:12;24.30;40.10
16032;DHT22;8120;48.308;8.914;2023-07-20T12:14:40;24.60;39.10
16032;DHT22;8120;48.308;8.914;2023-07-20T12:17:08;25.00;38.10
16032;DHT22;8120;48.308;8.914;2023-07-20T12:19:39;25.10;37.80
16032;DHT22;8120;48.308;8.914;2023-07-20T12:22:08;25.60;39.10
16032;DHT22;8120;48.308;8.914;2023-07-20T12:24:38;25.20;38.50
16032;DHT22;8120;48.308;8.914;2023-07-20T12:27:06;25.30;38.10
16032;DHT22;8120;48.308;8.914;2023-07-20T12:29:34;25.40;38.60
16032;DHT22;8120;48.308;8.914;2023-07-20T12:32:04;25.90;39.10
16032;DHT22;8120;48.308;8.914;2023-07-20T12:34:32;24.80;38.50
16032;DHT22;8120;48.308;8.914;2023-07-20T12:37:04;25.30;38.50
16032;DHT22;8120;48.308;8.914;2023-07-20T12:39:32;25.30;37.30
16032;DHT22;8120;48.308;8.914;2023-07-20T12:42:00;24.30;38.80
16032;DHT22;8120;48.308;8.914;2023-07-20T12:44:28;24.80;38.80
16032;DHT22;8120;48.308;8.914;2023-07-20T12:46:56;25.60;38.30
16032;DHT22;8120;48.308;8.914;2023-07-20T12:49:24;25.60;37.20
16032;DHT22;8120;48.308;8.914;2023-07-20T12:51:52;25.90;37.50
16032;DHT22;8120;48.308;8.914;2023-07-20T12:54:21;25.40;38.20
16032;DHT22;8120;48.308;8.914;2023-07-20T12:56:49;25.10;37.80
16032;DHT22;8120;48.308;8.914;2023-07-20T12:59:20;24.50;39.10
16032;DHT22;8120;48.308;8.914;2023-07-20T13:01:48;24.90;37.90
16032;DHT22;8120;48.308;8.914;2023-07-20T13:04:15;25.10;37.70
16032;DHT22;8120;48.308;8.914;2023-07-20T13:06:43;25.30;37.90
16032;DHT22;8120;48.308;8.914;2023-07-20T13:09:11;25.10;37.20
16032;DHT22;8120;48.308;8.914;2023-07-20T13:11:41;25.20;37.50
16032;DHT22;8120;48.308;8.914;2023-07-20T13:14:08;24.70;38.00
16032;DHT22;8120;48.308;8.914;2023-07-20T13:16:38;25.30;37.90
16032;DHT22;8120;48.308;8.914;2023-07-20T13:19:06;25.00;38.20
16032;DHT22;8120;48.308;8.914;2023-07-20T13:21:34;24.80;37.80
16032;DHT22;8120;48.308;8.914;2023-07-20T13:24:03;25.00;37.60
16032;DHT22;8120;48.308;8.914;2023-07-20T13:26:32;25.10;37.10
16032;DHT22;8120;48.308;8.914;2023-07-20T13:29:02;25.30;36.90
16032;DHT22;8120;48.308;8.914;2023-07-20T13:31:30;25.30;37.00
16032;DHT22;8120;48.308;8.914;2023-07-20T13:34:00;25.40;36.70
16032;DHT22;8120;48.308;8.914;2023-07-20T13:36:29;24.70;37.70
16032;DHT22;8120;48.308;8.914;2023-07-20T13:38:58;25.30;36.90
16032;DHT22;8120;48.308;8.914;2023-07-20T13:41:26;25.60;36.80
16032;DHT22;8120;48.308;8.914;2023-07-20T13:43:56;25.20;37.40
16032;DHT22;8120;48.308;8.914;2023-07-20T13:46:25;25.60;36.30
16032;DHT22;8120;48.308;8.914;2023-07-20T13:48:56;25.80;37.40
16032;DHT22;8120;48.308;8.914;2023-07-20T13:51:24;26.00;36.00
16032;DHT22;8120;48.308;8.914;2023-07-20T13:53:54;25.80;37.30
16032;DHT22;8120;48.308;8.914;2023-07-20T13:56:23;25.10;37.10
16032;DHT22;8120;48.308;8.914;2023-07-20T13:58:51;24.90;37.40
16032;DHT22;8120;48.308;8.914;2023-07-20T14:01:19;24.80;37.20
16032;DHT22;8120;48.308;8.914;2023-07-20T14:03:51;24.70;37.10
16032;DHT22;8120;48.308;8.914;2023-07-20T14:06:19;23.80;38.10
16032;DHT22;8120;48.308;8.914;2023-07-20T14:08:51;23.80;38.60
16032;DHT22;8120;48.308;8.914;2023-07-20T14:11:19;24.00;37.40
16032;DHT22;8120;48.308;8.914;2023-07-20T14:13:50;24.30;37.40
16032;DHT22;8120;48.308;8.914;2023-07-20T14:16:19;24.90;37.00
16032;DHT22;8120;48.308;8.914;2023-07-20T14:18:48;25.20;37.60
16032;DHT22;8120;48.308;8.914;2023-07-20T14:21:18;25.50;37.00
16032;DHT22;8120;48.308;8.914;2023-07-20T14:23:46;25.20;36.70
16032;DHT22;8120;48.308;8.914;2023-07-20T14:26:14;25.50;36.30
16032;DHT22;8120;48.308;8.914;2023-07-20T14:28:42;25.20;36.40
16032;DHT22;8120;48.308;8.914;2023-07-20T14:31:10;24.50;37.40
16032;DHT22;8120;48.308;8.914;2023-07-20T14:33:39;24.40;37.60
16032;DHT22;8120;48.308;8.914;2023-07-20T14:36:07;24.60;37.00
16032;DHT22;8120;48.308;8.914;2023-07-20T14:38:36;24.50;37.30
16032;DHT22;8120;48.308;8.914;2023-07-20T14:41:04;24.90;37.30
16032;DHT22;8120;48.308;8.914;2023-07-20T14:43:33;25.30;36.40
16032;DHT22;8120;48.308;8.914;2023-07-20T14:46:01;25.90;36.00
16032;DHT22;8120;48.308;8.914;2023-07-20T14:48:29;26.00;35.00
16032;DHT22;8120;48.308;8.914;2023-07-20T14:50:57;25.80;36.10
16032;DHT22;8120;48.308;8.914;2023-07-20T14:53:27;25.60;37.00
16032;DHT22;8120;48.308;8.914;2023-07-20T14:56:03;25.90;36.30
16032;DHT22;8120;48.308;8.914;2023-07-20T14:58:31;25.50;36.40
16032;DHT22;8120;48.308;8.914;2023-07-20T15:01:02;25.10;37.00
16032;DHT22;8120;48.308;8.914;2023-07-20T15:03:30;25.50;36.50
16032;DHT22;8120;48.308;8.914;2023-07-20T15:05:59;25.50;36.30
16032;DHT22;8120;48.308;8.914;2023-07-20T15:08:27;25.40;36.00
16032;DHT22;8120;48.308;8.914;2023-07-20T15:10:55;25.50;36.40
16032;DHT22;8120;48.308;8.914;2023-07-20T15:13:24;25.20;36.90
16032;DHT22;8120;48.308;8.914;2023-07-20T15:15:52;25.10;36.40
16032;DHT22;8120;48.308;8.914;2023-07-20T15:18:20;24.90;37.10
16032;DHT22;8120;48.308;8.914;2023-07-20T15:21:03;24.80;37.40
16032;DHT22;8120;48.308;8.914;2023-07-20T15:23:31;25.30;36.00
16032;DHT22;8120;48.308;8.914;2023-07-20T15:25:59;25.60;35.80
16032;DHT22;8120;48.308;8.914;2023-07-20T15:28:28;25.50;35.10
16032;DHT22;8120;48.308;8.914;2023-07-20T15:31:00;25.30;35.30
16032;DHT22;8120;48.308;8.914;2023-07-20T15:33:28;25.50;35.20
16032;DHT22;8120;48.308;8.914;2023-07-20T15:35:56;25.60;35.30
16032;DHT22;8120;48.308;8.914;2023-07-20T15:38:24;25.60;35.10
16032;DHT22;8120;48.308;8.914;2023-07-20T15:40:52;25.50;36.70
16032;DHT22;8120;48.308;8.914;2023-07-20T15:43:23;25.20;36.40
16032;DHT22;8120;48.308;8.914;2023-07-20T15:46:00;25.00;37.30
16032;DHT22;8120;48.308;8.914;2023-07-20T15:48:32;25.10;37.10
16032;DHT22;8120;48.308;8.914;2023-07-20T15:51:00;25.20;36.60
16032;DHT22;8120;48.308;8.914;2023-07-20T15:53:28;25.00;36.60
16032;DHT22;8120;48.308;8.914;2023-07-20T15:55:56;25.00;36.60
16032;DHT22;8120;48.308;8.914;2023-07-20T15:58:24;25.10;37.20